createdAt,value
2019-04-05T00:00:39.564Z,426.40
2019-04-05T00:01:39.553Z,425.30
2019-04-05T00:02:39.589Z,424.76
2019-04-05T00:03:39.514Z,425.02
2019-04-05T00:04:39.499Z,424.02
2019-04-05T00:05:39.490Z,424.59
2019-04-05T00:06:39.504Z,424.60
2019-04-05T00:07:39.513Z,424.99
2019-04-05T00:08:39.487Z,427.12
2019-04-05T00:09:39.462Z,425.24
2019-04-05T00:10:39.446Z,425.66
2019-04-05T00:11:39.436Z,423.31
2019-04-05T00:12:39.435Z,423.29
2019-04-05T00:13:39.438Z,424.27
2019-04-05T00:14:39.402Z,424.98
2019-04-05T00:15:39.410Z,424.33
2019-04-05T00:16:39.406Z,425.72
2019-04-05T00:17:39.378Z,424.88
2019-04-05T00:18:39.443Z,424.70
2019-04-05T00:19:39.373Z,425.77
2019-04-05T00:20:39.345Z,424.13
2019-04-05T00:21:39.335Z,425.32
2019-04-05T00:22:39.329Z,424.53
2019-04-05T00:23:39.317Z,424.58
2019-04-05T00:24:39.533Z,424.67
2019-04-05T00:25:39.306Z,424.53
2019-04-05T00:26:39.318Z,424.81
2019-04-05T00:27:39.274Z,424.89
2019-04-05T00:28:39.259Z,423.77
2019-04-05T00:29:39.262Z,426.49
2019-04-05T00:30:39.245Z,424.02
2019-04-05T00:31:39.223Z,424.35
2019-04-05T00:32:39.231Z,426.11
2019-04-05T00:33:39.207Z,424.65
2019-04-05T00:34:39.219Z,426.30
2019-04-05T00:35:39.186Z,424.20
2019-04-05T00:36:39.200Z,424.71
2019-04-05T00:37:39.190Z,426.42
2019-04-05T00:38:39.167Z,426.65
2019-04-05T00:39:39.194Z,425.81
2019-04-05T00:40:39.137Z,425.57
2019-04-05T00:41:39.116Z,425.09
2019-04-05T00:42:39.120Z,425.49
2019-04-05T00:43:39.091Z,427.47
2019-04-05T00:44:39.093Z,425.15
2019-04-05T00:45:39.086Z,423.20
2019-04-05T00:46:39.094Z,423.75
2019-04-05T00:47:39.091Z,424.47
2019-04-05T00:48:39.058Z,425.40
2019-04-05T00:49:39.040Z,423.34
2019-04-05T00:50:39.075Z,423.79
2019-04-05T00:51:39.037Z,424.91
2019-04-05T00:52:39.007Z,425.68
2019-04-05T00:53:39.002Z,425.27
2019-04-05T00:54:38.993Z,425.84
2019-04-05T00:55:39.018Z,424.38
2019-04-05T00:56:38.963Z,427.02
2019-04-05T00:57:38.974Z,424.77
2019-04-05T00:58:38.933Z,425.23
2019-04-05T00:59:38.943Z,425.72
2019-04-05T01:00:38.939Z,425.31
2019-04-05T01:01:38.911Z,425.66
2019-04-05T01:02:38.916Z,426.47
2019-04-05T01:03:38.892Z,425.50
2019-04-05T01:04:38.869Z,425.85
2019-04-05T01:05:38.886Z,424.69
2019-04-05T01:06:38.864Z,424.98
2019-04-05T01:07:38.865Z,424.44
2019-04-05T01:08:38.849Z,423.91
2019-04-05T01:09:38.845Z,424.96
2019-04-05T01:10:38.834Z,425.35
2019-04-05T01:11:38.851Z,424.45
2019-04-05T01:12:38.809Z,425.10
2019-04-05T01:13:38.798Z,424.69
2019-04-05T01:14:38.841Z,424.37
2019-04-05T01:15:41.031Z,424.99
2019-04-05T01:16:38.762Z,424.95
2019-04-05T01:17:38.762Z,426.24
2019-04-05T01:18:38.759Z,423.92
2019-04-05T01:19:38.733Z,424.28
2019-04-05T01:20:38.746Z,424.59
2019-04-05T01:21:38.699Z,425.17
2019-04-05T01:22:38.698Z,425.57
2019-04-05T01:23:38.691Z,426.31
2019-04-05T01:24:38.685Z,425.27
2019-04-05T01:25:38.684Z,424.47
2019-04-05T01:26:38.647Z,425.37
2019-04-05T01:27:38.661Z,425.47
2019-04-05T01:28:38.643Z,424.41
2019-04-05T01:29:38.641Z,426.32
2019-04-05T01:30:38.677Z,425.41
2019-04-05T01:31:38.590Z,424.54
2019-04-05T01:32:38.583Z,423.89
2019-04-05T01:33:38.601Z,424.79
2019-04-05T01:34:38.562Z,425.92
2019-04-05T01:35:38.564Z,425.11
2019-04-05T01:36:38.555Z,426.37
2019-04-05T01:37:38.524Z,424.15
2019-04-05T01:38:38.522Z,427.12
2019-04-05T01:39:38.506Z,424.94
2019-04-05T01:40:39.482Z,425.86
2019-04-05T01:41:38.494Z,425.72
2019-04-05T01:42:38.503Z,423.85
2019-04-05T01:43:38.499Z,425.97
2019-04-05T01:44:38.469Z,426.49
2019-04-05T01:45:38.525Z,424.24
2019-04-05T01:46:38.461Z,424.78
2019-04-05T01:47:38.432Z,426.51
2019-04-05T01:48:38.403Z,424.83
2019-04-05T01:49:38.436Z,423.48
2019-04-05T01:50:38.399Z,426.90
2019-04-05T01:51:38.373Z,426.11
2019-04-05T01:52:38.372Z,426.05
2019-04-05T01:53:38.351Z,426.08
2019-04-05T01:54:38.336Z,424.44
2019-04-05T01:55:38.382Z,424.57
2019-04-05T01:56:38.349Z,425.39
2019-04-05T01:57:38.322Z,427.11
2019-04-05T01:58:38.347Z,424.65
2019-04-05T01:59:38.288Z,426.74
2019-04-05T02:00:38.562Z,423.35
2019-04-05T02:01:38.275Z,424.04
2019-04-05T02:02:38.273Z,424.65
2019-04-05T02:03:38.259Z,423.08
2019-04-05T02:04:38.261Z,426.12
2019-04-05T02:05:38.268Z,425.31
2019-04-05T02:06:38.243Z,425.49
2019-04-05T02:07:38.215Z,424.20
2019-04-05T02:08:38.187Z,424.12
2019-04-05T02:09:38.216Z,423.76
2019-04-05T02:10:38.177Z,425.95
2019-04-05T02:11:38.179Z,423.72
2019-04-05T02:12:38.165Z,423.75
2019-04-05T02:13:38.154Z,425.23
2019-04-05T02:14:38.139Z,424.77
2019-04-05T02:15:38.166Z,423.64
2019-04-05T02:16:38.119Z,426.06
2019-04-05T02:17:38.099Z,428.47
2019-04-05T02:18:38.094Z,425.20
2019-04-05T02:19:38.110Z,425.20
2019-04-05T02:20:38.069Z,423.76
2019-04-05T02:21:38.092Z,423.70
2019-04-05T02:22:38.080Z,423.81
2019-04-05T02:23:38.044Z,424.87
2019-04-05T02:24:38.037Z,424.04
2019-04-05T02:25:38.022Z,425.20
2019-04-05T02:26:38.048Z,424.97
2019-04-05T02:27:38.002Z,427.57
2019-04-05T02:28:37.997Z,424.65
2019-04-05T02:29:37.984Z,423.94
2019-04-05T02:30:37.970Z,425.46
2019-04-05T02:31:37.963Z,423.29
2019-04-05T02:32:37.981Z,425.47
2019-04-05T02:33:37.930Z,424.74
2019-04-05T02:34:37.930Z,422.75
2019-04-05T02:35:39.194Z,425.95
2019-04-05T02:36:37.895Z,424.86
2019-04-05T02:37:37.907Z,424.93
2019-04-05T02:38:37.898Z,425.03
2019-04-05T02:39:37.864Z,423.46
2019-04-05T02:40:37.876Z,425.56
2019-04-05T02:41:37.853Z,422.95
2019-04-05T02:42:37.896Z,424.95
2019-04-05T02:43:37.840Z,425.04
2019-04-05T02:44:37.850Z,423.69
2019-04-05T02:45:37.814Z,425.26
2019-04-05T02:46:37.822Z,424.68
2019-04-05T02:47:37.813Z,426.15
2019-04-05T02:48:37.808Z,423.86
2019-04-05T02:49:37.791Z,426.40
2019-04-05T02:50:37.751Z,424.06
2019-04-05T02:51:37.752Z,425.53
2019-04-05T02:52:37.802Z,424.67
2019-04-05T02:53:37.746Z,423.86
2019-04-05T02:54:37.834Z,425.02
2019-04-05T02:55:37.723Z,425.68
2019-04-05T02:56:37.698Z,428.01
2019-04-05T02:57:37.682Z,425.39
2019-04-05T02:58:37.682Z,424.54
2019-04-05T02:59:37.672Z,425.14
2019-04-05T03:00:37.649Z,423.50
2019-04-05T03:01:37.640Z,424.55
2019-04-05T03:02:37.652Z,423.28
2019-04-05T03:03:37.650Z,423.99
2019-04-05T03:04:37.637Z,423.93
2019-04-05T03:05:37.609Z,425.42
2019-04-05T03:06:37.599Z,423.05
2019-04-05T03:07:37.579Z,423.50
2019-04-05T03:08:37.569Z,423.71
2019-04-05T03:09:37.570Z,424.13
2019-04-05T03:10:37.551Z,425.58
2019-04-05T03:11:37.554Z,423.80
2019-04-05T03:12:37.531Z,425.78
2019-04-05T03:13:37.516Z,423.10
2019-04-05T03:14:37.538Z,423.36
2019-04-05T03:15:37.515Z,425.36
2019-04-05T03:16:41.866Z,426.01
2019-04-05T03:17:37.482Z,425.09
2019-04-05T03:18:37.461Z,424.54
2019-04-05T03:19:37.464Z,422.73
2019-04-05T03:20:37.460Z,424.04
2019-04-05T03:21:37.438Z,423.11
2019-04-05T03:22:37.431Z,423.26
2019-04-05T03:23:37.406Z,423.43
2019-04-05T03:24:37.420Z,426.00
2019-04-05T03:25:37.421Z,424.54
2019-04-05T03:26:37.380Z,424.27
2019-04-05T03:27:37.372Z,423.15
2019-04-05T03:28:37.381Z,425.01
2019-04-05T03:29:37.353Z,423.89
2019-04-05T03:30:37.353Z,423.01
2019-04-05T03:31:37.333Z,424.88
2019-04-05T03:32:37.327Z,424.27
2019-04-05T03:33:37.306Z,425.16
2019-04-05T03:34:37.297Z,424.09
2019-04-05T03:35:37.298Z,423.25
2019-04-05T03:36:37.268Z,424.75
2019-04-05T03:37:37.278Z,425.60
2019-04-05T03:38:37.282Z,425.24
2019-04-05T03:39:37.284Z,423.73
2019-04-05T03:40:37.251Z,426.11
2019-04-05T03:41:37.216Z,426.76
2019-04-05T03:42:37.208Z,423.97
2019-04-05T03:43:37.202Z,429.10
2019-04-05T03:44:37.200Z,424.29
2019-04-05T03:45:37.189Z,426.62
2019-04-05T03:46:37.185Z,424.65
2019-04-05T03:47:37.180Z,425.46
2019-04-05T03:48:37.171Z,424.59
2019-04-05T03:49:37.150Z,424.40
2019-04-05T03:50:37.147Z,424.01
2019-04-05T03:51:37.129Z,424.37
2019-04-05T03:52:37.116Z,422.55
2019-04-05T03:53:37.092Z,424.93
2019-04-05T03:54:37.085Z,424.50
2019-04-05T03:55:37.086Z,422.81
2019-04-05T03:56:38.258Z,424.27
2019-04-05T03:57:37.057Z,426.36
2019-04-05T03:58:37.037Z,423.82
2019-04-05T03:59:37.041Z,426.49
2019-04-05T04:00:37.019Z,425.83
2019-04-05T04:01:37.040Z,425.17
2019-04-05T04:02:37.042Z,422.92
2019-04-05T04:03:36.995Z,423.51
2019-04-05T04:04:36.980Z,424.87
2019-04-05T04:05:36.976Z,422.93
2019-04-05T04:06:36.980Z,424.05
2019-04-05T04:07:36.990Z,424.48
2019-04-05T04:08:36.933Z,424.99
2019-04-05T04:09:36.922Z,423.49
2019-04-05T04:10:36.918Z,422.68
2019-04-05T04:11:36.912Z,425.06
2019-04-05T04:12:36.901Z,424.20
2019-04-05T04:13:36.890Z,424.22
2019-04-05T04:14:36.921Z,425.46
2019-04-05T04:15:36.861Z,424.55
2019-04-05T04:16:36.847Z,425.18
2019-04-05T04:17:36.852Z,425.19
2019-04-05T04:18:36.869Z,425.48
2019-04-05T04:19:36.849Z,424.80
2019-04-05T04:20:36.806Z,423.42
2019-04-05T04:21:36.800Z,423.15
2019-04-05T04:22:36.789Z,423.04
2019-04-05T04:23:36.790Z,424.72
2019-04-05T04:24:36.800Z,425.01
2019-04-05T04:25:36.773Z,423.21
2019-04-05T04:26:36.755Z,426.49
2019-04-05T04:27:36.744Z,424.33
2019-04-05T04:28:36.745Z,425.52
2019-04-05T04:29:36.716Z,425.15
2019-04-05T04:30:36.710Z,423.89
2019-04-05T04:31:36.685Z,425.86
2019-04-05T04:32:36.679Z,425.59
2019-04-05T04:33:36.677Z,424.74
2019-04-05T04:34:36.672Z,423.48
2019-04-05T04:35:37.597Z,424.87
2019-04-05T04:36:36.658Z,426.19
2019-04-05T04:37:36.624Z,424.01
2019-04-05T04:38:36.653Z,424.40
2019-04-05T04:39:36.613Z,425.09
2019-04-05T04:40:37.582Z,422.78
2019-04-05T04:41:36.600Z,423.62
2019-04-05T04:42:36.600Z,424.42
2019-04-05T04:43:36.567Z,424.17
2019-04-05T04:44:36.568Z,424.23
2019-04-05T04:45:36.569Z,422.88
2019-04-05T04:46:36.566Z,424.02
2019-04-05T04:47:36.558Z,425.16
2019-04-05T04:48:36.524Z,423.60
2019-04-05T04:49:36.512Z,424.75
2019-04-05T04:50:36.515Z,423.30
2019-04-05T04:51:36.521Z,423.90
2019-04-05T04:52:36.462Z,424.05
2019-04-05T04:53:36.580Z,424.24
2019-04-05T04:54:36.546Z,422.55
2019-04-05T04:55:36.461Z,422.19
2019-04-05T04:56:36.427Z,424.86
2019-04-05T04:57:36.592Z,425.34
2019-04-05T04:58:38.156Z,426.44
2019-04-05T04:59:38.018Z,423.35
2019-04-05T05:00:36.430Z,424.13
2019-04-05T05:01:36.375Z,423.63
2019-04-05T05:02:36.423Z,422.46
2019-04-05T05:03:36.371Z,423.25
2019-04-05T05:04:36.375Z,424.78
2019-04-05T05:05:36.342Z,424.11
2019-04-05T05:06:36.322Z,424.07
2019-04-05T05:07:36.326Z,423.24
2019-04-05T05:08:37.252Z,426.31
2019-04-05T05:09:36.279Z,422.68
2019-04-05T05:10:36.305Z,423.33
2019-04-05T05:11:37.024Z,423.83
2019-04-05T05:12:36.276Z,424.44
2019-04-05T05:13:36.260Z,423.51
2019-04-05T05:14:36.347Z,425.65
2019-04-05T05:15:36.271Z,425.31
2019-04-05T05:16:36.210Z,423.43
2019-04-05T05:17:38.587Z,424.20
2019-04-05T05:18:36.195Z,425.42
2019-04-05T05:19:36.176Z,426.33
2019-04-05T05:20:36.192Z,422.57
2019-04-05T05:21:36.208Z,424.03
2019-04-05T05:22:36.147Z,423.47
2019-04-05T05:23:36.178Z,425.34
2019-04-05T05:24:36.129Z,423.72
2019-04-05T05:25:36.114Z,423.62
2019-04-05T05:26:36.126Z,425.77
2019-04-05T05:27:36.114Z,422.79
2019-04-05T05:28:36.128Z,422.85
2019-04-05T05:29:36.128Z,423.98
2019-04-05T05:30:36.106Z,423.44
2019-04-05T05:31:36.103Z,421.62
2019-04-05T05:32:36.058Z,425.99
2019-04-05T05:33:36.049Z,422.69
2019-04-05T05:34:36.036Z,422.71
2019-04-05T05:35:36.014Z,425.44
2019-04-05T05:36:36.042Z,424.64
2019-04-05T05:37:35.996Z,422.65
2019-04-05T05:38:37.028Z,424.64
2019-04-05T05:39:35.992Z,426.43
2019-04-05T05:40:35.989Z,423.26
2019-04-05T05:41:36.657Z,423.74
2019-04-05T05:42:35.954Z,423.20
2019-04-05T05:43:35.946Z,423.69
2019-04-05T05:44:35.973Z,422.90
2019-04-05T05:45:35.915Z,424.34
2019-04-05T05:46:35.889Z,424.90
2019-04-05T05:47:50.495Z,422.70
2019-04-05T05:48:37.643Z,424.60
2019-04-05T05:49:35.890Z,422.77
2019-04-05T05:50:35.865Z,423.68
2019-04-05T05:51:35.886Z,424.35
2019-04-05T05:52:35.834Z,422.34
2019-04-05T05:53:35.887Z,424.35
2019-04-05T05:54:35.912Z,425.58
2019-04-05T05:55:35.809Z,425.56
2019-04-05T05:56:36.959Z,427.36
2019-04-05T05:57:36.543Z,423.40
2019-04-05T05:58:35.786Z,425.53
2019-04-05T05:59:35.768Z,424.14
2019-04-05T06:00:35.753Z,425.56
2019-04-05T06:01:35.747Z,423.42
2019-04-05T06:02:38.387Z,423.52
2019-04-05T06:03:35.730Z,426.36
2019-04-05T06:04:35.711Z,422.64
2019-04-05T06:05:35.706Z,423.61
2019-04-05T06:06:35.705Z,424.18
2019-04-05T06:07:35.675Z,424.81
2019-04-05T06:08:35.656Z,425.50
2019-04-05T06:09:35.664Z,424.82
2019-04-05T06:10:36.617Z,424.32
2019-04-05T06:11:35.630Z,424.22
2019-04-05T06:12:35.611Z,422.52
2019-04-05T06:13:35.615Z,424.43
2019-04-05T06:14:35.588Z,423.28
2019-04-05T06:15:37.562Z,422.74
2019-04-05T06:16:45.812Z,424.24
2019-04-05T06:17:36.566Z,425.27
2019-04-05T06:18:35.547Z,425.20
2019-04-05T06:19:35.567Z,424.62
2019-04-05T06:20:35.683Z,423.21
2019-04-05T06:21:35.694Z,424.45
2019-04-05T06:22:35.653Z,423.52
2019-04-05T06:23:35.598Z,423.18
2019-04-05T06:24:35.507Z,423.47
2019-04-05T06:25:35.487Z,423.32
2019-04-05T06:26:35.521Z,425.55
2019-04-05T06:27:35.653Z,424.74
2019-04-05T06:28:35.522Z,423.97
2019-04-05T06:29:35.443Z,424.05
2019-04-05T06:30:36.078Z,424.12
2019-04-05T06:31:35.597Z,423.32
2019-04-05T06:32:35.414Z,424.11
2019-04-05T06:33:35.977Z,423.78
2019-04-05T06:34:35.382Z,425.96
2019-04-05T06:35:35.368Z,424.84
2019-04-05T06:36:35.377Z,426.16
2019-04-05T06:37:35.364Z,425.03
2019-04-05T06:38:35.394Z,424.15
2019-04-05T06:39:35.330Z,423.52
2019-04-05T06:40:41.039Z,425.02
2019-04-05T06:41:36.312Z,424.34
2019-04-05T06:42:35.309Z,424.91
2019-04-05T06:43:35.324Z,424.14
2019-04-05T06:44:35.299Z,424.17
2019-04-05T06:45:35.271Z,424.45
2019-04-05T06:46:35.274Z,423.88
2019-04-05T06:47:35.332Z,423.36
2019-04-05T06:48:35.242Z,424.68
2019-04-05T06:49:35.268Z,424.39
2019-04-05T06:50:35.206Z,424.69
2019-04-05T06:51:35.199Z,424.33
2019-04-05T06:52:35.215Z,424.72
2019-04-05T06:53:35.217Z,423.66
2019-04-05T06:54:35.183Z,423.89
2019-04-05T06:55:35.169Z,423.32
2019-04-05T06:56:35.153Z,424.10
2019-04-05T06:57:35.183Z,423.00
2019-04-05T06:58:35.123Z,423.42
2019-04-05T06:59:35.125Z,424.09
2019-04-05T07:00:35.129Z,423.35
2019-04-05T07:01:35.103Z,423.83
2019-04-05T07:02:35.091Z,423.16
2019-04-05T07:03:35.085Z,424.18
2019-04-05T07:04:35.092Z,423.45
2019-04-05T07:05:35.057Z,424.31
2019-04-05T07:06:35.038Z,423.37
2019-04-05T07:07:35.040Z,423.29
2019-04-05T07:08:35.025Z,423.55
2019-04-05T07:09:35.021Z,423.11
2019-04-05T07:10:35.027Z,423.61
2019-04-05T07:11:35.028Z,423.42
2019-04-05T07:12:35.000Z,423.76
2019-04-05T07:13:34.971Z,423.67
2019-04-05T07:14:34.956Z,423.26
2019-04-05T07:15:34.993Z,423.99
2019-04-05T07:16:34.931Z,423.57
2019-04-05T07:17:34.938Z,423.28
2019-04-05T07:18:36.340Z,424.05
2019-04-05T07:19:34.919Z,424.55
2019-04-05T07:20:34.898Z,423.75
2019-04-05T07:21:34.907Z,422.60
2019-04-05T07:22:39.108Z,422.15
2019-04-05T07:23:34.857Z,422.28
2019-04-05T07:24:34.857Z,422.75
2019-04-05T07:25:34.880Z,422.84
2019-04-05T07:26:34.843Z,423.49
2019-04-05T07:27:34.896Z,423.24
2019-04-05T07:28:34.840Z,422.47
2019-04-05T07:29:34.794Z,422.55
2019-04-05T07:30:34.801Z,421.69
2019-04-05T07:31:34.792Z,421.99
2019-04-05T07:32:34.768Z,421.15
2019-04-05T07:33:34.793Z,422.93
2019-04-05T07:34:34.750Z,423.10
2019-04-05T07:35:34.844Z,421.67
2019-04-05T07:36:34.790Z,421.39
2019-04-05T07:37:34.758Z,420.45
2019-04-05T07:38:34.746Z,421.94
2019-04-05T07:39:34.711Z,421.25
2019-04-05T07:40:34.714Z,421.36
2019-04-05T07:41:34.699Z,421.67
2019-04-05T07:42:34.718Z,420.48
2019-04-05T07:43:34.682Z,421.13
2019-04-05T07:44:34.643Z,420.95
2019-04-05T07:45:34.641Z,420.68
2019-04-05T07:46:34.616Z,421.60
2019-04-05T07:47:34.614Z,421.86
2019-04-05T07:48:44.166Z,421.95
2019-04-05T07:49:35.602Z,422.45
2019-04-05T07:50:34.582Z,421.77
2019-04-05T07:51:34.629Z,423.13
2019-04-05T07:52:34.568Z,421.48
2019-04-05T07:53:34.568Z,421.07
2019-04-05T07:54:34.577Z,421.06
2019-04-05T07:55:34.531Z,419.81
2019-04-05T07:56:34.502Z,420.14
2019-04-05T07:57:34.494Z,421.67
2019-04-05T07:58:34.507Z,420.26
2019-04-05T07:59:34.547Z,421.69
2019-04-05T08:00:34.481Z,420.42
2019-04-05T08:01:34.603Z,420.37
2019-04-05T08:02:34.457Z,420.77
2019-04-05T08:03:35.121Z,419.51
2019-04-05T08:04:34.459Z,420.31
2019-04-05T08:05:34.636Z,420.23
2019-04-05T08:06:34.419Z,419.58
2019-04-05T08:07:34.401Z,418.66
2019-04-05T08:08:34.410Z,419.40
2019-04-05T08:09:34.393Z,419.68
2019-04-05T08:10:34.357Z,418.54
2019-04-05T08:11:34.365Z,419.57
2019-04-05T08:12:35.096Z,419.55
2019-04-05T08:13:34.360Z,421.35
2019-04-05T08:14:34.765Z,420.05
2019-04-05T08:15:35.150Z,421.18
2019-04-05T08:16:34.290Z,419.38
2019-04-05T08:17:34.291Z,419.85
2019-04-05T08:18:34.285Z,418.98
2019-04-05T08:19:34.307Z,419.41
2019-04-05T08:20:34.284Z,420.31
2019-04-05T08:21:34.368Z,418.91
2019-04-05T08:22:34.245Z,418.83
2019-04-05T08:23:34.304Z,419.91
2019-04-05T08:24:35.262Z,421.03
2019-04-05T08:25:34.218Z,420.87
2019-04-05T08:26:34.193Z,418.92
2019-04-05T08:27:34.206Z,418.29
2019-04-05T08:28:34.166Z,418.67
2019-04-05T08:29:34.213Z,419.02
2019-04-05T08:30:34.159Z,419.35
2019-04-05T08:31:34.180Z,420.42
2019-04-05T08:32:34.133Z,419.54
2019-04-05T08:33:36.400Z,418.15
2019-04-05T08:34:34.145Z,420.89
2019-04-05T08:35:34.142Z,421.89
2019-04-05T08:36:34.100Z,419.60
2019-04-05T08:37:34.085Z,418.68
2019-04-05T08:38:34.066Z,418.50
2019-04-05T08:39:34.055Z,419.89
2019-04-05T08:40:34.058Z,418.17
2019-04-05T08:41:34.068Z,418.77
2019-04-05T08:42:34.035Z,419.68
2019-04-05T08:43:34.065Z,421.04
2019-04-05T08:44:34.047Z,420.05
2019-04-05T08:45:33.993Z,420.41
2019-04-05T08:46:33.977Z,419.62
2019-04-05T08:47:33.984Z,423.29
2019-04-05T08:48:33.981Z,419.98
2019-04-05T08:49:33.971Z,420.00
2019-04-05T08:50:33.955Z,420.58
2019-04-05T08:51:33.953Z,418.81
2019-04-05T08:52:33.972Z,417.91
2019-04-05T08:53:33.918Z,419.52
2019-04-05T08:54:36.610Z,420.13
2019-04-05T08:55:33.963Z,422.00
2019-04-05T08:56:33.884Z,420.80
2019-04-05T08:57:33.884Z,421.90
2019-04-05T08:58:33.945Z,419.88
2019-04-05T08:59:33.859Z,417.89
2019-04-05T09:00:33.844Z,419.03
2019-04-05T09:01:33.846Z,420.29
2019-04-05T09:02:33.824Z,420.98
2019-04-05T09:03:33.861Z,419.72
2019-04-05T09:04:33.803Z,420.93
2019-04-05T09:05:33.788Z,419.22
2019-04-05T09:06:33.958Z,420.48
2019-04-05T09:07:33.778Z,421.35
2019-04-05T09:08:33.741Z,419.85
2019-04-05T09:09:33.752Z,423.84
2019-04-05T09:10:33.814Z,422.15
2019-04-05T09:11:33.735Z,420.12
2019-04-05T09:12:33.727Z,421.46
2019-04-05T09:13:34.673Z,419.57
2019-04-05T09:14:33.698Z,420.90
2019-04-05T09:15:33.707Z,419.29
2019-04-05T09:16:33.694Z,421.25
2019-04-05T09:17:33.680Z,419.50
2019-04-05T09:18:33.719Z,419.79
2019-04-05T09:19:33.620Z,419.74
2019-04-05T09:20:33.639Z,421.00
2019-04-05T09:21:33.608Z,421.64
2019-04-05T09:22:33.608Z,422.40
2019-04-05T09:23:33.600Z,419.45
2019-04-05T09:24:33.591Z,420.77
2019-04-05T09:25:33.580Z,421.41
2019-04-05T09:26:33.551Z,420.30
2019-04-05T09:27:33.547Z,419.60
2019-04-05T09:28:33.549Z,422.18
2019-04-05T09:29:33.533Z,422.21
2019-04-05T09:30:33.560Z,419.09
2019-04-05T09:31:33.503Z,420.41
2019-04-05T09:32:36.394Z,419.26
2019-04-05T09:33:33.497Z,420.70
2019-04-05T09:34:33.555Z,421.00
2019-04-05T09:35:33.552Z,417.98
2019-04-05T09:36:33.524Z,420.36
2019-04-05T09:37:33.433Z,419.74
2019-04-05T09:38:33.457Z,419.35
2019-04-05T09:39:33.443Z,420.02
2019-04-05T09:40:33.435Z,421.01
2019-04-05T09:41:33.411Z,418.19
2019-04-05T09:42:33.384Z,419.58
2019-04-05T09:43:33.387Z,421.86
2019-04-05T09:44:33.408Z,422.04
2019-04-05T09:45:33.379Z,419.32
2019-04-05T09:46:45.609Z,420.92
2019-04-05T09:47:34.326Z,419.33
2019-04-05T09:48:33.331Z,423.95
2019-04-05T09:49:37.067Z,419.72
2019-04-05T09:50:33.342Z,419.08
2019-04-05T09:51:33.294Z,422.59
2019-04-05T09:52:33.320Z,423.15
2019-04-05T09:53:33.297Z,421.92
2019-04-05T09:54:33.267Z,420.27
2019-04-05T09:55:33.262Z,418.89
2019-04-05T09:56:33.249Z,419.10
2019-04-05T09:57:33.236Z,420.00
2019-04-05T09:58:33.259Z,423.14
2019-04-05T09:59:33.223Z,423.04
2019-04-05T10:00:33.207Z,417.87
2019-04-05T10:01:33.216Z,418.95
2019-04-05T10:02:33.190Z,418.28
2019-04-05T10:03:33.200Z,419.75
2019-04-05T10:04:33.205Z,418.26
2019-04-05T10:05:33.197Z,419.65
2019-04-05T10:06:33.202Z,423.64
2019-04-05T10:07:33.171Z,421.12
2019-04-05T10:08:33.155Z,421.05
2019-04-05T10:09:33.143Z,418.87
2019-04-05T10:10:33.105Z,422.51
2019-04-05T10:11:33.089Z,421.89
2019-04-05T10:12:33.092Z,421.28
2019-04-05T10:13:33.076Z,420.46
2019-04-05T10:14:33.073Z,422.54
2019-04-05T10:15:33.044Z,421.18
2019-04-05T10:16:33.041Z,421.79
2019-04-05T10:17:33.025Z,426.92
2019-04-05T10:18:33.007Z,418.77
2019-04-05T10:19:33.003Z,421.90
2019-04-05T10:20:32.983Z,419.83
2019-04-05T10:21:32.990Z,419.61
2019-04-05T10:22:32.966Z,422.03
2019-04-05T10:23:32.990Z,423.07
2019-04-05T10:24:33.180Z,421.40
2019-04-05T10:25:32.939Z,422.39
2019-04-05T10:26:32.970Z,418.75
2019-04-05T10:27:32.907Z,422.87
2019-04-05T10:28:32.908Z,422.12
2019-04-05T10:29:32.895Z,417.18
2019-04-05T10:30:32.893Z,421.08
2019-04-05T10:31:32.875Z,419.52
2019-04-05T10:32:32.847Z,421.27
2019-04-05T10:33:32.840Z,420.27
2019-04-05T10:34:32.893Z,424.78
2019-04-05T10:35:32.867Z,419.35
2019-04-05T10:36:32.899Z,419.24
2019-04-05T10:37:32.807Z,422.21
2019-04-05T10:38:32.801Z,421.43
2019-04-05T10:39:32.825Z,422.25
2019-04-05T10:40:32.794Z,422.83
2019-04-05T10:41:32.759Z,420.19
2019-04-05T10:42:32.762Z,421.33
2019-04-05T10:43:32.746Z,421.34
2019-04-05T10:44:32.755Z,420.78
2019-04-05T10:45:32.732Z,421.84
2019-04-05T10:46:32.732Z,423.03
2019-04-05T10:47:32.708Z,420.46
2019-04-05T10:48:35.280Z,422.61
2019-04-05T10:49:32.705Z,423.11
2019-04-05T10:50:32.681Z,421.92
2019-04-05T10:51:32.654Z,421.67
2019-04-05T10:52:32.662Z,424.58
2019-04-05T10:53:32.707Z,419.07
2019-04-05T10:54:32.632Z,421.95
2019-04-05T10:55:32.614Z,421.74
2019-04-05T10:56:32.591Z,426.09
2019-04-05T10:57:32.583Z,418.90
2019-04-05T10:58:32.578Z,420.15
2019-04-05T10:59:32.569Z,419.92
2019-04-05T11:00:32.573Z,420.60
2019-04-05T11:01:32.552Z,421.52
2019-04-05T11:02:32.528Z,422.30
2019-04-05T11:03:32.568Z,419.29
2019-04-05T11:04:32.519Z,424.86
2019-04-05T11:05:32.512Z,420.03
2019-04-05T11:06:32.486Z,423.24
2019-04-05T11:07:34.959Z,422.02
2019-04-05T11:08:32.483Z,421.05
2019-04-05T11:09:32.502Z,419.52
2019-04-05T11:10:32.459Z,422.19
2019-04-05T11:11:32.442Z,420.52
2019-04-05T11:12:32.466Z,424.01
2019-04-05T11:13:32.435Z,419.87
2019-04-05T11:14:32.441Z,421.48
2019-04-05T11:15:32.404Z,422.62
2019-04-05T11:16:32.404Z,420.49
2019-04-05T11:17:32.382Z,421.08
2019-04-05T11:18:32.920Z,419.02
2019-04-05T11:19:34.824Z,423.22
2019-04-05T11:20:32.362Z,420.07
2019-04-05T11:21:32.416Z,421.99
2019-04-05T11:22:32.341Z,419.10
2019-04-05T11:23:32.323Z,420.61
2019-04-05T11:24:32.358Z,419.61
2019-04-05T11:25:32.337Z,421.45
2019-04-05T11:26:32.285Z,419.56
2019-04-05T11:27:32.269Z,418.05
2019-04-05T11:28:32.257Z,419.46
2019-04-05T11:29:32.270Z,421.04
2019-04-05T11:30:32.233Z,419.96
2019-04-05T11:31:32.257Z,422.24
2019-04-05T11:32:32.267Z,421.99
2019-04-05T11:33:32.207Z,424.12
2019-04-05T11:34:32.196Z,420.58
2019-04-05T11:35:32.192Z,418.85
2019-04-05T11:36:32.177Z,419.98
2019-04-05T11:37:32.189Z,425.03
2019-04-05T11:38:32.157Z,420.48
2019-04-05T11:39:32.155Z,423.28
2019-04-05T11:40:32.134Z,420.24
2019-04-05T11:41:32.166Z,419.93
2019-04-05T11:42:33.166Z,420.74
2019-04-05T11:43:32.102Z,422.50
2019-04-05T11:44:32.102Z,422.15
2019-04-05T11:45:32.093Z,419.78
2019-04-05T11:46:32.084Z,419.67
2019-04-05T11:47:32.143Z,419.81
2019-04-05T11:48:32.078Z,420.71
2019-04-05T11:49:32.106Z,420.91
2019-04-05T11:50:34.667Z,421.66
2019-04-05T11:51:32.017Z,422.09
2019-04-05T11:52:32.008Z,422.30
2019-04-05T11:53:32.012Z,421.95
2019-04-05T11:54:31.994Z,420.30
2019-04-05T11:55:31.989Z,423.55
2019-04-05T11:56:31.971Z,423.23
2019-04-05T11:57:31.956Z,420.51
2019-04-05T11:58:31.946Z,424.18
2019-04-05T11:59:31.947Z,423.38
2019-04-05T12:00:31.927Z,422.11
2019-04-05T12:01:31.933Z,422.11
2019-04-05T12:02:31.896Z,422.41
2019-04-05T12:03:31.907Z,422.28
2019-04-05T12:04:31.871Z,423.18
2019-04-05T12:05:31.903Z,422.75
2019-04-05T12:06:31.879Z,424.05
2019-04-05T12:07:31.838Z,419.67
2019-04-05T12:08:31.865Z,420.17
2019-04-05T12:09:31.884Z,421.01
2019-04-05T12:10:32.208Z,419.38
2019-04-05T12:11:31.835Z,421.51
2019-04-05T12:12:31.807Z,420.98
2019-04-05T12:13:31.785Z,420.94
2019-04-05T12:14:31.781Z,419.28
2019-04-05T12:15:33.518Z,419.99
2019-04-05T12:16:31.788Z,420.58
2019-04-05T12:17:35.075Z,421.21
2019-04-05T12:18:32.539Z,421.56
2019-04-05T12:19:32.965Z,421.85
2019-04-05T12:20:33.265Z,420.19
2019-04-05T12:21:32.601Z,420.19
2019-04-05T12:22:34.537Z,419.61
2019-04-05T12:23:33.383Z,419.94
2019-04-05T12:24:32.655Z,420.51
2019-04-05T12:25:33.439Z,420.42
2019-04-05T12:26:32.443Z,420.02
2019-04-05T12:27:31.629Z,420.08
2019-04-05T12:28:31.663Z,420.33